createdAt,value
2022-09-20T00:01:32.146Z,12.80
2022-09-20T00:04:02.349Z,12.80
2022-09-20T00:06:31.982Z,12.80
2022-09-20T00:09:01.193Z,12.70
2022-09-20T00:11:32.567Z,12.70
2022-09-20T00:14:02.224Z,12.50
2022-09-20T00:16:32.892Z,12.50
2022-09-20T00:19:03.935Z,12.40
2022-09-20T00:21:34.425Z,12.40
2022-09-20T00:24:01.696Z,12.30
2022-09-20T00:26:29.580Z,12.20
2022-09-20T00:28:58.540Z,12.20
2022-09-20T00:31:25.907Z,12.20
2022-09-20T00:34:16.821Z,12.10
2022-09-20T00:36:44.873Z,12.10
2022-09-20T00:39:14.575Z,12.00
2022-09-20T00:41:41.551Z,11.90
2022-09-20T00:44:43.930Z,11.80
2022-09-20T00:47:22.030Z,11.80
2022-09-20T00:49:52.780Z,11.80
2022-09-20T00:52:20.519Z,11.90
2022-09-20T00:54:48.608Z,11.90
2022-09-20T00:57:15.540Z,11.90
2022-09-20T00:59:46.652Z,12.00
2022-09-20T01:02:23.923Z,12.10
2022-09-20T01:04:51.250Z,12.10
2022-09-20T01:07:22.406Z,12.10
2022-09-20T01:09:50.534Z,12.10
2022-09-20T01:12:26.191Z,12.10
2022-09-20T01:14:55.230Z,12.10
2022-09-20T01:17:27.350Z,12.10
2022-09-20T01:19:59.532Z,12.10
2022-09-20T01:22:41.041Z,12.10
2022-09-20T01:25:37.810Z,12.10
2022-09-20T01:28:04.582Z,12.10
2022-09-20T01:30:57.612Z,12.10
2022-09-20T01:33:47.264Z,12.10
2022-09-20T01:36:35.732Z,12.10
2022-09-20T01:39:34.159Z,12.20
2022-09-20T01:42:10.943Z,12.10
2022-09-20T01:45:05.607Z,12.20
2022-09-20T01:47:43.849Z,12.20
2022-09-20T01:50:36.784Z,12.20
2022-09-20T01:53:46.251Z,12.20
2022-09-20T01:56:28.839Z,12.40
2022-09-20T01:59:32.311Z,12.40
2022-09-20T02:02:25.929Z,12.50
2022-09-20T02:05:13.056Z,12.50
2022-09-20T02:08:07.736Z,12.50
2022-09-20T02:11:09.475Z,12.50
2022-09-20T02:14:09.484Z,12.50
2022-09-20T02:17:00.588Z,12.60
2022-09-20T02:19:33.087Z,12.60
2022-09-20T02:22:14.880Z,12.60
2022-09-20T02:25:09.726Z,12.60
2022-09-20T02:27:53.747Z,12.60
2022-09-20T02:31:23.347Z,12.60
2022-09-20T02:34:52.946Z,12.50
2022-09-20T02:37:50.060Z,12.50
2022-09-20T02:40:35.515Z,12.50
2022-09-20T02:43:35.393Z,12.50
2022-09-20T02:46:50.408Z,12.40
2022-09-20T02:49:57.247Z,12.40
2022-09-20T02:53:18.399Z,12.40
2022-09-20T02:56:07.431Z,12.40
2022-09-20T02:58:48.310Z,12.40
2022-09-20T03:01:48.594Z,12.30
2022-09-20T03:04:42.504Z,12.30
2022-09-20T03:08:16.672Z,12.20
2022-09-20T03:11:30.691Z,12.20
2022-09-20T03:14:23.401Z,12.10
2022-09-20T03:17:22.044Z,12.10
2022-09-20T03:20:14.027Z,12.10
2022-09-20T03:23:19.805Z,12.10
2022-09-20T03:25:57.714Z,12.00
2022-09-20T03:28:48.037Z,12.00
2022-09-20T03:31:41.977Z,12.00
2022-09-20T03:34:38.512Z,12.00
2022-09-20T03:37:21.987Z,11.90
2022-09-20T03:40:19.279Z,11.80
2022-09-20T03:42:54.419Z,11.80
2022-09-20T03:45:21.248Z,11.80
2022-09-20T03:48:26.558Z,11.80
2022-09-20T03:51:17.249Z,11.80
2022-09-20T03:54:19.868Z,11.80
2022-09-20T03:57:42.355Z,11.70
2022-09-20T04:00:56.056Z,11.70
2022-09-20T04:03:34.883Z,11.70
2022-09-20T04:06:36.898Z,11.70
2022-09-20T04:09:34.869Z,11.70
2022-09-20T04:12:40.827Z,11.80
2022-09-20T04:15:16.384Z,11.70
2022-09-20T04:18:17.017Z,11.60
2022-09-20T04:21:16.963Z,11.70
2022-09-20T04:24:07.667Z,11.70
2022-09-20T04:26:44.530Z,11.70
2022-09-20T04:29:44.811Z,11.70
2022-09-20T04:32:48.679Z,11.70
2022-09-20T04:36:24.775Z,11.60
2022-09-20T04:39:06.149Z,11.70
2022-09-20T04:42:03.223Z,11.70
2022-09-20T04:45:11.232Z,11.60
2022-09-20T04:48:15.516Z,11.70
2022-09-20T04:51:19.563Z,11.60
2022-09-20T04:55:01.957Z,11.60
2022-09-20T04:58:09.539Z,11.60
2022-09-20T05:01:03.224Z,11.60
2022-09-20T05:04:15.112Z,11.50
2022-09-20T05:06:50.900Z,11.50
2022-09-20T05:09:50.216Z,11.40
2022-09-20T05:12:46.333Z,11.30
2022-09-20T05:15:49.670Z,11.20
2022-09-20T05:19:04.850Z,11.20
2022-09-20T05:22:11.379Z,11.20
2022-09-20T05:25:28.149Z,11.20
2022-09-20T05:28:31.438Z,11.10
2022-09-20T05:31:13.503Z,11.10
2022-09-20T05:33:49.043Z,11.10
2022-09-20T05:36:58.300Z,11.10
2022-09-20T05:39:49.557Z,11.00
2022-09-20T05:43:00.476Z,11.00
2022-09-20T05:46:14.906Z,11.00
2022-09-20T05:49:50.076Z,11.10
2022-09-20T05:52:30.990Z,11.10
2022-09-20T05:55:46.892Z,11.00
2022-09-20T05:59:02.006Z,11.00
2022-09-20T06:01:40.202Z,11.00
2022-09-20T06:04:27.880Z,11.10
2022-09-20T06:07:48.133Z,11.10
2022-09-20T06:10:42.807Z,11.20
2022-09-20T06:14:03.625Z,11.40
2022-09-20T06:16:53.842Z,11.50
2022-09-20T06:19:47.224Z,11.40
2022-09-20T06:22:28.416Z,11.40
2022-09-20T06:25:07.367Z,11.50
2022-09-20T06:27:39.276Z,11.40
2022-09-20T06:30:26.927Z,11.50
2022-09-20T06:33:12.855Z,11.40
2022-09-20T06:35:47.816Z,11.30
2022-09-20T06:38:45.058Z,11.30
2022-09-20T06:41:28.106Z,11.30
2022-09-20T06:44:00.685Z,11.40
2022-09-20T06:46:34.134Z,11.50
2022-09-20T06:49:02.083Z,11.90
2022-09-20T06:51:36.127Z,12.10
2022-09-20T06:54:05.319Z,12.20
2022-09-20T06:56:36.637Z,12.20
2022-09-20T06:59:07.435Z,12.30
2022-09-20T07:01:34.354Z,12.40
2022-09-20T07:04:02.726Z,12.40
2022-09-20T07:06:29.520Z,12.50
2022-09-20T07:08:56.321Z,12.60
2022-09-20T07:11:23.424Z,12.70
2022-09-20T07:13:53.910Z,12.80
2022-09-20T07:16:21.972Z,12.90
2022-09-20T07:18:49.715Z,13.00
2022-09-20T07:21:18.487Z,13.10
2022-09-20T07:23:49.950Z,13.20
2022-09-20T07:26:20.619Z,13.20
2022-09-20T07:28:48.247Z,13.30
2022-09-20T07:31:16.399Z,13.40
2022-09-20T07:33:43.124Z,13.40
2022-09-20T07:36:12.328Z,13.40
2022-09-20T07:38:40.873Z,13.40
2022-09-20T07:41:08.022Z,13.40
2022-09-20T07:43:35.292Z,13.40
2022-09-20T07:46:02.520Z,13.40
2022-09-20T07:48:32.775Z,13.40
2022-09-20T07:51:09.077Z,13.40
2022-09-20T07:53:36.953Z,13.50
2022-09-20T07:56:16.178Z,13.50
2022-09-20T07:58:47.414Z,13.40
2022-09-20T08:01:19.871Z,13.30
2022-09-20T08:03:46.626Z,13.40
2022-09-20T08:06:18.335Z,13.40
2022-09-20T08:08:45.491Z,13.50
2022-09-20T08:11:17.076Z,13.50
2022-09-20T08:14:07.456Z,13.50
2022-09-20T08:16:45.480Z,13.60
2022-09-20T08:19:21.956Z,13.80
2022-09-20T08:21:52.561Z,13.90
2022-09-20T08:24:19.719Z,14.10
2022-09-20T08:26:48.479Z,14.20
2022-09-20T08:29:15.380Z,14.30
2022-09-20T08:31:43.121Z,14.40
2022-09-20T08:34:13.868Z,14.30
2022-09-20T08:36:46.165Z,14.20
2022-09-20T08:42:34.885Z,14.30
2022-09-20T08:45:22.217Z,14.30
2022-09-20T08:47:58.683Z,14.20
2022-09-20T08:50:26.744Z,14.20
2022-09-20T08:53:02.160Z,14.30
2022-09-20T08:55:36.407Z,14.30
2022-09-20T08:58:08.535Z,14.20
2022-09-20T09:00:38.651Z,14.30
2022-09-20T09:03:16.824Z,14.30
2022-09-20T09:05:45.175Z,14.40
2022-09-20T09:08:19.448Z,14.30
2022-09-20T09:10:53.972Z,14.40
2022-09-20T09:14:27.149Z,14.40
2022-09-20T09:16:54.585Z,14.40
2022-09-20T09:19:44.214Z,14.50
2022-09-20T09:22:11.832Z,14.60
2022-09-20T09:24:38.619Z,14.60
2022-09-20T09:27:17.667Z,14.60
2022-09-20T09:29:53.863Z,14.50
2022-09-20T09:32:32.695Z,14.60
2022-09-20T09:35:26.537Z,14.60
2022-09-20T09:38:01.914Z,14.70
2022-09-20T09:40:32.096Z,14.70
2022-09-20T09:43:02.910Z,14.90
2022-09-20T09:45:39.100Z,14.70
2022-09-20T09:48:31.054Z,14.60
2022-09-20T09:51:15.245Z,14.30
2022-09-20T09:53:43.560Z,14.20
2022-09-20T09:56:32.976Z,14.10
2022-09-20T09:59:12.341Z,13.90
2022-09-20T10:01:52.060Z,14.00
2022-09-20T10:04:35.661Z,14.00
2022-09-20T10:07:05.119Z,14.10
2022-09-20T10:09:54.805Z,14.20
2022-09-20T10:12:45.519Z,14.30
2022-09-20T10:15:22.151Z,14.40
2022-09-20T10:18:00.871Z,14.50
2022-09-20T10:21:07.766Z,14.70
2022-09-20T10:24:05.895Z,14.80
2022-09-20T10:26:51.366Z,14.90
2022-09-20T10:29:26.127Z,15.10
2022-09-20T10:32:50.074Z,15.20
2022-09-20T10:35:44.889Z,15.20
2022-09-20T10:38:41.246Z,15.30
2022-09-20T10:41:57.232Z,15.50
2022-09-20T10:44:46.266Z,15.60
2022-09-20T10:47:33.074Z,15.60
2022-09-20T10:50:30.683Z,15.70
2022-09-20T10:53:12.346Z,15.70
2022-09-20T10:56:10.967Z,15.70
2022-09-20T10:59:10.348Z,15.70
2022-09-20T11:02:27.171Z,15.70
2022-09-20T11:05:22.571Z,15.80
2022-09-20T11:08:06.683Z,16.00
2022-09-20T11:10:48.822Z,16.00
2022-09-20T11:13:37.266Z,16.00
2022-09-20T11:16:23.282Z,16.00
2022-09-20T11:19:35.662Z,16.10
2022-09-20T11:22:46.104Z,16.10
2022-09-20T11:25:28.755Z,16.20
2022-09-20T11:28:16.161Z,16.20
2022-09-20T11:31:04.312Z,16.30
2022-09-20T11:33:53.720Z,16.50
2022-09-20T11:36:51.464Z,16.50
2022-09-20T11:39:39.386Z,16.40
2022-09-20T11:42:13.806Z,16.40
2022-09-20T11:44:42.313Z,16.40
2022-09-20T11:47:12.050Z,16.40
2022-09-20T11:50:00.416Z,16.50
2022-09-20T11:52:54.420Z,16.50
2022-09-20T11:55:33.071Z,16.70
2022-09-20T11:58:13.188Z,16.70
2022-09-20T12:00:47.767Z,16.60
2022-09-20T12:03:37.765Z,16.70
2022-09-20T12:06:09.221Z,16.60
2022-09-20T12:08:40.359Z,16.70
2022-09-20T12:11:15.555Z,16.90
2022-09-20T12:13:55.205Z,17.00
2022-09-20T12:16:44.526Z,17.20
2022-09-20T12:19:34.090Z,17.20
2022-09-20T12:22:00.790Z,17.30
2022-09-20T12:24:45.262Z,17.60
2022-09-20T12:27:27.485Z,17.80
2022-09-20T12:30:05.867Z,17.90
2022-09-20T12:32:41.702Z,17.90
2022-09-20T12:35:36.157Z,17.80
2022-09-20T12:38:31.099Z,17.60
2022-09-20T12:41:04.304Z,17.40
2022-09-20T12:43:34.331Z,17.30
2022-09-20T12:46:06.459Z,17.10
2022-09-20T12:48:38.206Z,17.00
2022-09-20T12:51:40.258Z,16.80
2022-09-20T12:54:11.756Z,16.70
2022-09-20T12:56:41.400Z,16.80
2022-09-20T12:59:30.903Z,16.80
2022-09-20T13:02:42.516Z,16.70
2022-09-20T13:05:38.125Z,16.60
2022-09-20T13:08:28.860Z,16.70
2022-09-20T13:11:17.160Z,16.80
2022-09-20T13:14:00.127Z,16.70
2022-09-20T13:16:37.216Z,16.90
2022-09-20T13:19:09.740Z,16.90
2022-09-20T13:21:55.532Z,16.90
2022-09-20T13:24:26.784Z,17.00
2022-09-20T13:27:03.238Z,16.90
2022-09-20T13:29:40.011Z,16.80
2022-09-20T13:32:27.054Z,16.90
2022-09-20T13:35:18.446Z,16.70
2022-09-20T13:37:45.136Z,16.60
2022-09-20T13:40:39.478Z,16.70
2022-09-20T13:43:28.226Z,16.60
2022-09-20T13:45:59.662Z,16.70
2022-09-20T13:48:30.439Z,16.70
2022-09-20T13:50:58.393Z,16.70
2022-09-20T13:53:41.211Z,16.70
2022-09-20T13:56:25.407Z,16.70
2022-09-20T13:58:53.090Z,16.60
2022-09-20T14:01:35.626Z,16.70
2022-09-20T14:04:08.681Z,16.80
2022-09-20T14:06:36.359Z,16.80
2022-09-20T14:09:11.072Z,16.70
2022-09-20T14:11:40.878Z,16.80
2022-09-20T14:14:10.434Z,16.80
2022-09-20T14:16:48.893Z,16.70
2022-09-20T14:19:20.080Z,16.70
2022-09-20T14:21:49.249Z,16.70
2022-09-20T14:24:35.399Z,16.70
2022-09-20T14:27:20.332Z,16.80
2022-09-20T14:29:49.688Z,16.80
2022-09-20T14:32:19.516Z,16.90
2022-09-20T14:34:51.576Z,16.80
2022-09-20T14:37:30.372Z,16.70
2022-09-20T14:40:02.350Z,16.60
2022-09-20T14:42:35.804Z,16.70
2022-09-20T14:45:06.243Z,16.60
2022-09-20T14:47:51.973Z,16.60
2022-09-20T14:50:36.460Z,16.60
2022-09-20T14:53:12.261Z,16.50
2022-09-20T14:56:06.662Z,16.50
2022-09-20T14:59:13.728Z,16.40
2022-09-20T15:01:59.003Z,16.40
2022-09-20T15:04:28.294Z,16.30
2022-09-20T15:07:00.034Z,16.30
2022-09-20T15:09:27.263Z,16.30
2022-09-20T15:12:01.694Z,16.30
2022-09-20T15:14:28.558Z,16.30
2022-09-20T15:16:57.495Z,16.30
2022-09-20T15:19:24.231Z,16.30
2022-09-20T15:21:51.246Z,16.20
2022-09-20T15:24:18.804Z,16.20
2022-09-20T15:26:46.238Z,16.20
2022-09-20T15:29:17.209Z,16.20
2022-09-20T15:31:47.861Z,16.20
2022-09-20T15:34:16.080Z,16.10
2022-09-20T15:36:43.300Z,16.20
2022-09-20T15:39:10.338Z,16.20
2022-09-20T15:41:38.171Z,16.10
2022-09-20T15:44:06.416Z,16.20
2022-09-20T15:46:34.249Z,16.20
2022-09-20T15:49:03.797Z,16.20
2022-09-20T15:51:30.896Z,16.20
2022-09-20T15:54:01.580Z,16.20
2022-09-20T15:56:33.006Z,16.20
2022-09-20T15:59:09.287Z,16.20
2022-09-20T16:01:39.719Z,16.10
2022-09-20T16:04:19.140Z,16.10
2022-09-20T16:06:50.301Z,16.10
2022-09-20T16:09:18.183Z,16.10
2022-09-20T16:11:45.682Z,16.10
2022-09-20T16:14:12.723Z,16.00
2022-09-20T16:16:40.790Z,16.00
2022-09-20T16:19:20.684Z,16.00
2022-09-20T16:21:58.693Z,16.00
2022-09-20T16:24:36.262Z,16.00
2022-09-20T16:27:07.500Z,16.00
2022-09-20T16:29:34.735Z,16.00
2022-09-20T16:32:03.586Z,15.90
2022-09-20T16:34:33.683Z,15.90
2022-09-20T16:37:16.876Z,15.90
2022-09-20T16:39:44.416Z,15.90
2022-09-20T16:42:13.200Z,15.90
2022-09-20T16:44:42.843Z,15.80
2022-09-20T16:47:22.005Z,15.80
2022-09-20T16:49:50.163Z,15.70
2022-09-20T16:52:16.946Z,15.70
2022-09-20T16:54:43.877Z,15.60
2022-09-20T16:57:10.594Z,15.70
2022-09-20T16:59:37.318Z,15.70
2022-09-20T17:02:04.092Z,15.50
2022-09-20T17:04:30.848Z,15.50
2022-09-20T17:06:57.651Z,15.50
2022-09-20T17:09:24.411Z,15.50
2022-09-20T17:11:52.068Z,15.30
2022-09-20T17:14:20.732Z,15.30
2022-09-20T17:16:49.134Z,15.20
2022-09-20T17:19:19.518Z,15.10
2022-09-20T17:21:52.750Z,15.00
2022-09-20T17:24:23.328Z,14.90
2022-09-20T17:26:52.092Z,14.90
2022-09-20T17:29:20.488Z,14.80
2022-09-20T17:31:55.201Z,14.70
2022-09-20T17:34:22.763Z,14.60
2022-09-20T17:36:50.692Z,14.60
2022-09-20T17:39:18.568Z,14.50
2022-09-20T17:41:49.563Z,14.60
2022-09-20T17:44:16.867Z,14.50
2022-09-20T17:46:47.836Z,14.60
2022-09-20T17:49:18.478Z,14.60
2022-09-20T17:51:51.457Z,14.60
2022-09-20T17:54:20.061Z,14.60
2022-09-20T17:56:50.723Z,14.60
2022-09-20T17:59:19.513Z,14.60
2022-09-20T18:01:49.835Z,14.60
2022-09-20T18:04:16.938Z,14.50
2022-09-20T18:06:50.257Z,14.50
2022-09-20T18:09:25.425Z,14.60
2022-09-20T18:11:55.100Z,14.50
2022-09-20T18:14:25.626Z,14.40
2022-09-20T18:16:55.848Z,14.40
2022-09-20T18:19:22.913Z,14.30
2022-09-20T18:21:50.540Z,14.20
2022-09-20T18:24:17.372Z,14.10
2022-09-20T18:26:44.430Z,14.00
2022-09-20T18:29:16.397Z,14.00
2022-09-20T18:31:54.148Z,13.90
2022-09-20T18:34:24.440Z,13.80
2022-09-20T18:36:57.378Z,13.80
2022-09-20T18:39:27.096Z,13.80
2022-09-20T18:41:54.786Z,13.80
2022-09-20T18:44:22.855Z,13.80
2022-09-20T18:46:54.758Z,13.70
2022-09-20T18:49:22.528Z,13.70
2022-09-20T18:51:49.706Z,13.70
2022-09-20T18:54:17.004Z,13.70
2022-09-20T18:56:47.207Z,13.70
2022-09-20T18:59:19.631Z,13.70
2022-09-20T19:01:57.978Z,13.70
2022-09-20T19:05:08.395Z,13.70
2022-09-20T19:07:38.006Z,13.70
2022-09-20T19:10:24.505Z,13.60
2022-09-20T19:13:23.150Z,13.60
2022-09-20T19:16:19.946Z,13.60
2022-09-20T19:19:33.756Z,13.60
2022-09-20T19:22:19.844Z,13.50
2022-09-20T19:24:55.500Z,13.60
2022-09-20T19:27:23.428Z,13.50
2022-09-20T19:29:50.556Z,13.50
2022-09-20T19:32:21.164Z,13.60
2022-09-20T19:34:55.701Z,13.50
2022-09-20T19:38:04.335Z,13.50
2022-09-20T19:40:50.584Z,13.50
2022-09-20T19:43:42.072Z,13.50
2022-09-20T19:46:48.883Z,13.50
2022-09-20T19:49:23.047Z,13.50
2022-09-20T19:51:50.167Z,13.50
2022-09-20T19:54:17.520Z,13.50
2022-09-20T19:56:55.681Z,13.50
2022-09-20T19:59:25.710Z,13.50
2022-09-20T20:01:54.279Z,13.50
2022-09-20T20:04:21.940Z,13.40
2022-09-20T20:07:01.983Z,13.40
2022-09-20T20:10:08.339Z,13.40
2022-09-20T20:13:04.033Z,13.40
2022-09-20T20:15:57.187Z,13.40
2022-09-20T20:19:01.421Z,13.30
2022-09-20T20:22:05.315Z,13.30
2022-09-20T20:24:49.986Z,13.20
2022-09-20T20:27:16.750Z,13.20
2022-09-20T20:29:43.628Z,13.20
2022-09-20T20:32:11.007Z,13.20
2022-09-20T20:34:38.026Z,13.20
2022-09-20T20:37:05.450Z,13.20
2022-09-20T20:39:32.752Z,13.20
2022-09-20T20:42:05.983Z,13.10
2022-09-20T20:44:34.907Z,13.10
2022-09-20T20:47:06.521Z,13.10
2022-09-20T20:49:33.552Z,13.10
2022-09-20T20:52:04.487Z,13.10
2022-09-20T20:54:32.132Z,13.10
2022-09-20T20:56:59.375Z,13.10
2022-09-20T20:59:26.580Z,13.10
2022-09-20T21:01:53.409Z,13.00
2022-09-20T21:04:21.492Z,13.00
2022-09-20T21:06:48.317Z,13.10
2022-09-20T21:09:15.153Z,13.00
2022-09-20T21:11:48.197Z,13.10
2022-09-20T21:14:15.697Z,13.00
2022-09-20T21:16:43.472Z,13.00
2022-09-20T21:19:14.937Z,13.00
2022-09-20T21:21:44.808Z,13.00
2022-09-20T21:24:15.178Z,13.00
2022-09-20T21:26:41.989Z,12.90
2022-09-20T21:29:14.280Z,13.00
2022-09-20T21:31:43.884Z,12.90
2022-09-20T21:34:13.676Z,12.90
2022-09-20T21:36:41.461Z,12.90
2022-09-20T21:39:08.875Z,12.90
2022-09-20T21:41:38.852Z,12.90
2022-09-20T21:44:07.649Z,13.00
2022-09-20T21:46:40.227Z,13.00
2022-09-20T21:49:10.141Z,12.90
2022-09-20T21:51:38.781Z,12.90
2022-09-20T21:54:05.817Z,12.90
2022-09-20T21:56:38.427Z,12.80
2022-09-20T21:59:06.217Z,12.80
2022-09-20T22:01:36.593Z,12.80
2022-09-20T22:04:10.244Z,12.80
2022-09-20T22:06:43.094Z,12.80
2022-09-20T22:09:13.319Z,12.80
2022-09-20T22:11:43.512Z,12.90
2022-09-20T22:14:12.880Z,12.80
2022-09-20T22:16:43.078Z,12.60
2022-09-20T22:19:12.941Z,12.60
2022-09-20T22:21:43.353Z,12.60
2022-09-20T22:24:13.528Z,12.50
2022-09-20T22:26:47.042Z,12.50
2022-09-20T22:29:15.282Z,12.50
2022-09-20T22:31:45.479Z,12.50
2022-09-20T22:34:21.065Z,12.40
2022-09-20T22:36:48.359Z,12.40
2022-09-20T22:39:17.033Z,12.40
2022-09-20T22:41:45.072Z,12.30
2022-09-20T22:44:12.170Z,12.30
2022-09-20T22:46:39.909Z,12.30
2022-09-20T22:49:09.314Z,12.10
2022-09-20T22:51:37.493Z,12.20
2022-09-20T22:54:08.609Z,12.10
2022-09-20T22:56:36.961Z,12.10
2022-09-20T22:59:10.729Z,12.00
2022-09-20T23:01:42.327Z,11.90
2022-09-20T23:04:13.477Z,11.90
2022-09-20T23:06:49.703Z,11.80
2022-09-20T23:09:18.304Z,11.80
2022-09-20T23:11:46.823Z,11.70
2022-09-20T23:14:18.375Z,11.70
2022-09-20T23:16:46.411Z,11.60
2022-09-20T23:19:14.416Z,11.50
2022-09-20T23:21:43.262Z,11.50
2022-09-20T23:24:13.087Z,11.50
2022-09-20T23:26:42.245Z,11.50
2022-09-20T23:29:13.100Z,11.40
2022-09-20T23:31:46.074Z,11.40
2022-09-20T23:34:14.690Z,11.30
2022-09-20T23:36:43.183Z,11.30
2022-09-20T23:39:11.880Z,11.20
2022-09-20T23:41:41.131Z,11.10
2022-09-20T23:44:09.817Z,11.00
2022-09-20T23:46:38.288Z,10.90
2022-09-20T23:49:06.611Z,11.00
2022-09-20T23:51:35.287Z,10.90
2022-09-20T23:54:02.634Z,10.90
2022-09-20T23:56:30.040Z,10.80
2022-09-20T23:58:57.057Z,10.80
